Time;durP1;ratioP1;P1;durP2;ratioP2;P2;SDS_P1;SDS_P2;PMS_P1;PMS_P2;Temp;Humidity;BMP_temperature;BMP_pressure;BME280_temperature;BME280_humidity;BME280_pressure;Samples;Min_cycle;Max_cycle;Signal;HPM_P1;HPM_P2
2021/12/28 00:01:37;;;;;;;23.10;19.48;;;;;;;6.03;59.96;100888.56;5051426;28;20413;-63
2021/12/28 00:04:06;;;;;;;23.05;19.38;;;;;;;5.90;60.93;100892.81;5051422;28;20918;-63
2021/12/28 00:06:34;;;;;;;25.42;21.25;;;;;;;6.46;58.98;100882.41;5051590;28;20431;-63
2021/12/28 00:09:02;;;;;;;26.08;21.52;;;;;;;6.42;59.04;100889.66;5051295;28;20496;-63
2021/12/28 00:11:29;;;;;;;26.77;22.17;;;;;;;6.38;58.87;100899.53;5033814;28;20413;-64
2021/12/28 00:14:01;;;;;;;25.27;20.15;;;;;;;6.53;58.46;100888.97;5051284;28;20415;-63
2021/12/28 00:17:58;;;;;;;27.45;20.48;;;;;;;6.17;59.16;100885.91;5051473;28;20432;-64
2021/12/28 00:19:23;;;;;;;24.80;18.42;;;;;;;5.92;60.10;100896.22;5051024;28;20416;-65
2021/12/28 00:21:50;;;;;;;37.33;27.35;;;;;;;6.31;59.10;100881.59;5051070;28;20496;-65
2021/12/28 00:24:17;;;;;;;25.88;20.10;;;;;;;6.06;60.40;100888.34;5051329;28;20495;-64
2021/12/28 00:26:44;;;;;;;26.07;20.57;;;;;;;6.45;58.97;100881.59;5050859;28;20432;-64
2021/12/28 00:29:11;;;;;;;23.15;19.20;;;;;;;6.54;58.42;100891.50;5050959;28;21643;-63
2021/12/28 00:31:39;;;;;;;24.45;20.17;;;;;;;6.68;58.27;100882.75;5051440;28;20488;-63
2021/12/28 00:34:06;;;;;;;23.42;19.33;;;;;;;6.68;58.39;100879.28;5051113;28;20420;-64
2021/12/28 00:36:34;;;;;;;21.92;18.48;;;;;;;6.66;58.24;100876.72;5050838;28;20491;-63
2021/12/28 00:39:01;;;;;;;22.02;18.73;;;;;;;6.50;58.72;100884.75;5051065;28;20519;-64
2021/12/28 00:41:28;;;;;;;21.63;18.30;;;;;;;6.65;58.34;100890.84;5049384;28;20408;-64
2021/12/28 00:43:55;;;;;;;20.88;18.00;;;;;;;6.79;58.02;100893.44;5048366;28;20440;-65
2021/12/28 00:46:22;;;;;;;19.30;15.70;;;;;;;6.18;59.19;100892.03;5050092;28;20443;-64
2021/12/28 00:48:49;;;;;;;18.73;15.75;;;;;;;5.93;59.89;100892.66;5051285;28;20420;-64
2021/12/28 00:51:16;;;;;;;18.87;16.67;;;;;;;6.07;59.77;100883.97;5050907;28;20542;-64
2021/12/28 00:53:44;;;;;;;22.00;17.98;;;;;;;6.31;58.73;100876.34;5050833;28;20949;-64
2021/12/28 00:56:11;;;;;;;20.83;17.87;;;;;;;6.10;59.19;100874.06;5049750;28;20948;-65
2021/12/28 00:58:38;;;;;;;22.52;17.92;;;;;;;5.78;60.04;100882.13;5050105;28;20413;-63
2021/12/28 01:01:06;;;;;;;23.80;18.75;;;;;;;5.29;61.35;100871.91;5050640;28;20822;-64
2021/12/28 01:03:37;;;;;;;27.20;20.75;;;;;;;5.25;61.96;100866.88;5050759;28;20501;-64
2021/12/28 01:06:05;;;;;;;23.75;18.85;;;;;;;5.22;62.10;100870.53;5050518;28;20417;-63
2021/12/28 01:08:32;;;;;;;22.60;18.03;;;;;;;5.37;61.75;100874.91;5051033;28;20578;-63
2021/12/28 01:11:02;;;;;;;23.02;18.75;;;;;;;5.11;62.13;100883.44;5050560;28;20940;-64
2021/12/28 01:13:29;;;;;;;23.38;18.77;;;;;;;4.94;63.24;100874.75;5050686;28;20415;-63
2021/12/28 01:15:57;;;;;;;23.60;20.55;;;;;;;5.26;61.94;100877.31;5050616;28;20412;-63
2021/12/28 01:18:25;;;;;;;25.33;20.35;;;;;;;5.36;61.53;100873.22;5050424;28;20448;-64
2021/12/28 01:20:52;;;;;;;24.77;21.15;;;;;;;5.26;61.75;100874.69;5051074;28;20483;-63
2021/12/28 01:23:19;;;;;;;27.15;23.20;;;;;;;5.53;60.99;100872.22;5050608;28;20764;-63
2021/12/28 01:25:46;;;;;;;30.95;26.40;;;;;;;5.74;59.96;100874.53;5050629;28;20416;-63
2021/12/28 01:28:15;;;;;;;29.42;23.55;;;;;;;5.69;59.96;100873.94;5050559;28;20432;-63
2021/12/28 01:30:43;;;;;;;29.00;22.38;;;;;;;5.70;59.97;100879.13;5050261;28;20817;-64
2021/12/28 01:33:11;;;;;;;29.38;23.75;;;;;;;5.73;60.08;100876.28;5050193;28;20500;-63
2021/12/28 01:35:39;;;;;;;31.95;26.88;;;;;;;5.67;60.27;100868.78;5050080;28;20845;-64
2021/12/28 01:38:07;;;;;;;29.20;23.67;;;;;;;5.68;60.23;100872.22;5049700;28;20540;-63
2021/12/28 01:40:37;;;;;;;27.05;22.10;;;;;;;5.54;60.61;100876.53;5041352;28;21265;-67
2021/12/28 01:43:10;;;;;;;26.77;23.08;;;;;;;5.48;60.78;100870.81;5045428;28;20448;-64
2021/12/28 01:45:46;;;;;;;28.38;21.90;;;;;;;5.42;61.05;100872.84;5049916;28;20488;-63
2021/12/28 01:48:16;;;;;;;24.38;20.30;;;;;;;5.54;61.35;100867.81;5050118;28;20507;-63
2021/12/28 01:50:44;;;;;;;27.30;20.67;;;;;;;5.41;61.60;100873.81;5050207;28;20487;-63
2021/12/28 01:53:13;;;;;;;26.33;21.33;;;;;;;5.59;61.36;100879.72;5049807;28;20499;-63
2021/12/28 01:55:43;;;;;;;28.38;24.55;;;;;;;5.85;60.60;100871.25;5049727;28;20881;-63
2021/12/28 01:58:10;;;;;;;32.20;25.03;;;;;;;5.69;60.67;100873.94;5049750;28;20997;-62
2021/12/28 02:00:39;;;;;;;28.83;23.63;;;;;;;5.55;61.39;100866.88;5049946;28;20423;-63
2021/12/28 02:03:09;;;;;;;30.38;23.75;;;;;;;5.79;60.48;100868.03;5049555;28;20847;-63
2021/12/28 02:05:37;;;;;;;29.02;23.30;;;;;;;6.01;60.05;100864.13;5049855;28;20416;-63
2021/12/28 02:08:04;;;;;;;28.73;23.73;;;;;;;5.82;60.61;100870.47;5049400;28;21001;-63
2021/12/28 02:10:31;;;;;;;26.70;21.58;;;;;;;5.67;60.74;100860.88;5049541;28;20878;-64
2021/12/28 02:12:58;;;;;;;18.17;14.93;;;;;;;5.30;61.67;100862.22;5049367;28;20495;-64
2021/12/28 02:15:26;;;;;;;26.30;22.13;;;;;;;5.49;61.58;100857.56;5048752;28;20500;-63
2021/12/28 02:17:54;;;;;;;35.08;29.63;;;;;;;5.89;60.08;100852.53;5048585;28;20408;-63
2021/12/28 02:20:23;;;;;;;31.95;26.48;;;;;;;5.98;59.92;100848.53;5049599;28;20443;-63
2021/12/28 02:22:50;;;;;;;26.38;22.30;;;;;;;6.00;59.88;100851.91;5049546;28;20491;-63
2021/12/28 02:25:19;;;;;;;32.37;27.83;;;;;;;6.15;59.71;100845.72;5049197;28;20420;-63
2021/12/28 02:27:46;;;;;;;29.00;24.55;;;;;;;6.10;60.07;100847.78;5049418;28;20894;-62
2021/12/28 02:30:16;;;;;;;26.17;22.20;;;;;;;6.20;59.91;100842.78;5049237;28;20549;-63
2021/12/28 02:32:44;;;;;;;23.17;19.77;;;;;;;6.26;59.75;100837.13;5049609;28;20409;-63
2021/12/28 02:35:14;;;;;;;20.70;18.02;;;;;;;6.44;58.92;100834.31;5049590;28;20416;-63
2021/12/28 02:37:43;;;;;;;22.98;19.63;;;;;;;6.11;59.85;100836.31;5049488;28;20444;-63
2021/12/28 02:40:14;;;;;;;23.92;20.48;;;;;;;6.05;60.52;100828.81;5049188;28;20412;-64
2021/12/28 02:42:42;;;;;;;22.57;19.30;;;;;;;5.90;60.69;100825.31;5017368;28;20900;-62
2021/12/28 02:45:12;;;;;;;22.98;19.73;;;;;;;6.07;60.28;100820.84;5028998;28;20493;-62
2021/12/28 02:47:40;;;;;;;22.02;19.70;;;;;;;6.07;60.44;100820.84;5028449;28;20441;-63
2021/12/28 02:50:11;;;;;;;22.92;20.45;;;;;;;5.94;60.65;100820.69;5033276;28;20414;-63
2021/12/28 02:52:40;;;;;;;23.70;21.07;;;;;;;6.17;60.21;100822.78;5033308;28;20421;-63
2021/12/28 02:55:12;;;;;;;22.95;20.42;;;;;;;6.24;59.80;100820.59;5033696;28;20489;-63
2021/12/28 02:57:45;;;;;;;23.60;20.10;;;;;;;6.15;59.96;100819.41;5033549;28;20776;-64
2021/12/28 03:00:14;;;;;;;25.52;20.98;;;;;;;6.25;60.15;100816.22;5033603;28;20429;-63
2021/12/28 03:02:41;;;;;;;24.95;21.15;;;;;;;6.26;59.74;100815.25;5033146;28;20414;-63
2021/12/28 03:05:08;;;;;;;24.48;21.00;;;;;;;6.45;59.61;100826.31;5033514;28;20428;-63
2021/12/28 03:07:53;;;;;;;22.02;19.70;;;;;;;6.56;59.07;100837.00;5033106;28;20509;-63
2021/12/28 03:10:22;;;;;;;25.95;22.23;;;;;;;6.03;60.59;100824.59;5033385;28;20413;-63
2021/12/28 03:12:49;;;;;;;23.30;20.75;;;;;;;5.44;62.37;100832.53;5032972;28;20410;-63
2021/12/28 03:15:16;;;;;;;25.90;21.15;;;;;;;5.38;62.71;100831.94;5033038;28;20465;-63
2021/12/28 03:17:44;;;;;;;24.55;19.77;;;;;;;5.20;63.04;100825.97;5032873;28;20417;-63
2021/12/28 03:20:13;;;;;;;27.35;21.55;;;;;;;5.53;62.56;100819.66;5033264;28;20526;-63
2021/12/28 03:22:40;;;;;;;27.30;21.20;;;;;;;5.61;61.90;100822.66;5033013;28;20406;-63
2021/12/28 03:25:09;;;;;;;27.33;21.73;;;;;;;5.81;61.16;100825.88;5033113;28;20582;-64
2021/12/28 03:27:37;;;;;;;28.92;23.23;;;;;;;5.66;61.64;100822.41;5032603;28;20516;-63
2021/12/28 03:30:07;;;;;;;29.70;22.73;;;;;;;5.65;61.91;100825.97;5032791;28;20410;-64
2021/12/28 03:32:34;;;;;;;26.13;21.23;;;;;;;5.44;62.86;100824.63;5031947;28;20420;-63
2021/12/28 03:35:03;;;;;;;26.33;22.08;;;;;;;5.42;62.38;100819.47;5031857;28;20425;-63
2021/12/28 03:37:30;;;;;;;26.83;21.75;;;;;;;5.40;62.42;100819.56;5032047;28;20422;-64
2021/12/28 03:39:58;;;;;;;26.52;21.48;;;;;;;5.59;61.95;100819.28;5031665;28;20497;-63
2021/12/28 03:42:25;;;;;;;27.95;21.92;;;;;;;5.77;61.45;100822.59;5035223;28;20897;-64
2021/12/28 03:44:53;;;;;;;26.77;20.58;;;;;;;5.99;60.49;100826.56;5052552;28;20445;-63
2021/12/28 03:47:20;;;;;;;23.55;16.38;;;;;;;5.77;60.80;100827.84;5052288;28;20436;-64
2021/12/28 03:49:47;;;;;;;24.88;18.35;;;;;;;5.43;61.68;100829.03;5052463;28;20426;-64
2021/12/28 03:52:14;;;;;;;23.73;17.45;;;;;;;5.10;62.59;100827.44;5052596;28;20415;-62
2021/12/28 03:54:41;;;;;;;25.20;18.90;;;;;;;4.90;63.45;100823.34;5052060;28;20938;-63
2021/12/28 03:57:08;;;;;;;24.90;18.15;;;;;;;4.55;64.35;100828.81;5052042;28;20958;-64
2021/12/28 03:59:35;;;;;;;25.55;17.98;;;;;;;4.43;64.94;100824.25;5051644;28;20921;-63
2021/12/28 04:02:04;;;;;;;29.00;19.50;;;;;;;4.64;64.07;100827.44;5051643;28;21016;-63
2021/12/28 04:04:31;;;;;;;27.05;19.13;;;;;;;4.57;64.37;100819.09;5052516;28;20484;-63
2021/12/28 04:06:58;;;;;;;29.08;19.95;;;;;;;4.49;64.70;100816.03;5051734;28;20973;-63
2021/12/28 04:09:46;;;;;;;34.15;21.90;;;;;;;4.84;63.46;100823.69;5051745;28;20417;-64
2021/12/28 04:12:12;;;;;;;34.15;22.02;;;;;;;5.03;63.30;100820.88;5051359;28;20412;-63
2021/12/28 04:14:39;;;;;;;34.40;21.90;;;;;;;5.13;62.30;100818.53;5051581;28;20505;-63
2021/12/28 04:17:07;;;;;;;35.60;21.58;;;;;;;5.18;61.98;100821.75;5051520;28;20861;-63
2021/12/28 04:19:34;;;;;;;42.03;23.38;;;;;;;5.21;61.96;100821.56;5051930;28;20404;-63
2021/12/28 04:22:01;;;;;;;40.05;22.70;;;;;;;5.01;62.44;100825.38;5051542;28;20487;-63
2021/12/28 04:24:28;;;;;;;39.80;23.67;;;;;;;4.88;62.72;100825.22;5051537;28;20412;-62
2021/12/28 04:26:55;;;;;;;43.72;26.00;;;;;;;4.71;63.68;100818.31;5051325;28;20488;-63
2021/12/28 04:29:22;;;;;;;50.47;30.02;;;;;;;4.65;64.18;100821.28;5051546;28;21013;-63
2021/12/28 04:31:49;;;;;;;44.00;25.63;;;;;;;4.76;63.86;100818.03;5051203;28;20993;-63
2021/12/28 04:34:17;;;;;;;44.90;27.63;;;;;;;4.65;64.21;100823.91;5051264;28;20940;-62
2021/12/28 04:36:45;;;;;;;42.40;24.63;;;;;;;4.66;63.96;100817.72;5051262;28;20419;-63
2021/12/28 04:39:11;;;;;;;37.65;21.80;;;;;;;4.49;64.50;100823.91;5051446;28;20435;-63
2021/12/28 04:41:38;;;;;;;37.25;21.95;;;;;;;4.21;65.48;100820.19;5036456;28;21013;-63
2021/12/28 04:44:06;;;;;;;35.17;22.02;;;;;;;4.21;65.34;100829.84;5051445;28;20422;-62
2021/12/28 04:46:33;;;;;;;37.22;24.13;;;;;;;4.17;65.43;100817.81;5050927;28;20857;-63
2021/12/28 04:49:00;;;;;;;48.25;29.65;;;;;;;4.23;65.54;100814.84;5050882;28;20770;-63
2021/12/28 04:51:28;;;;;;;122.05;63.58;;;;;;;4.55;63.82;100814.88;5051536;28;20845;-63
2021/12/28 04:53:56;;;;;;;215.07;108.18;;;;;;;4.28;64.63;100819.84;5050781;28;20779;-62
2021/12/28 04:56:24;;;;;;;164.73;82.95;;;;;;;4.31;64.57;100812.66;5050741;28;20447;-63
2021/12/28 04:58:50;;;;;;;107.85;57.10;;;;;;;4.29;64.69;100816.31;5051041;28;20438;-63
2021/12/28 05:01:17;;;;;;;80.70;46.05;;;;;;;4.32;64.90;100826.59;5050687;28;20419;-62
2021/12/28 05:03:44;;;;;;;95.18;51.80;;;;;;;4.51;64.41;100821.22;5050618;28;20416;-63
2021/12/28 05:06:11;;;;;;;270.75;128.57;;;;;;;4.63;64.03;100820.53;5050595;28;21013;-62
2021/12/28 05:08:41;;;;;;;275.17;136.68;;;;;;;4.55;64.29;100812.25;5050865;28;20424;-63
2021/12/28 05:11:08;;;;;;;205.70;104.93;;;;;;;4.60;64.21;100812.81;5050198;28;20420;-63
2021/12/28 05:13:34;;;;;;;64.10;39.60;;;;;;;4.69;64.03;100819.34;5050069;28;20487;-63
2021/12/28 05:16:02;;;;;;;52.78;29.77;;;;;;;4.70;63.53;100816.59;5050406;28;20412;-63
2021/12/28 05:18:28;;;;;;;50.15;31.50;;;;;;;4.77;63.53;100822.38;5050341;28;20833;-62
2021/12/28 05:20:55;;;;;;;51.75;28.83;;;;;;;4.79;63.23;100823.13;5049972;28;20447;-63
2021/12/28 05:23:22;;;;;;;55.67;30.88;;;;;;;4.77;63.03;100827.63;5065243;28;20500;-63
2021/12/28 05:25:51;;;;;;;55.23;32.27;;;;;;;4.80;62.89;100832.69;5050593;28;20412;-63
2021/12/28 05:28:18;;;;;;;59.80;34.25;;;;;;;4.70;63.09;100827.09;5050004;28;20524;-62
2021/12/28 05:30:45;;;;;;;63.55;34.45;;;;;;;4.86;62.70;100834.97;5050426;28;20412;-63
2021/12/28 05:33:12;;;;;;;69.53;35.55;;;;;;;4.79;62.90;100831.84;5050432;28;20451;-62
2021/12/28 05:35:38;;;;;;;75.00;36.45;;;;;;;4.81;62.87;100827.34;5050359;28;20426;-64
2021/12/28 05:38:05;;;;;;;72.13;36.55;;;;;;;4.84;62.60;100828.09;5050082;28;20500;-63
2021/12/28 05:40:33;;;;;;;69.63;37.30;;;;;;;4.83;61.92;100835.16;5042062;28;20936;-67
2021/12/28 05:43:01;;;;;;;65.45;37.72;;;;;;;4.70;62.36;100840.22;5043851;28;20981;-62
2021/12/28 05:45:28;;;;;;;79.22;47.88;;;;;;;4.74;62.30;100839.13;5049908;28;20495;-63
2021/12/28 05:47:55;;;;;;;75.30;42.90;;;;;;;4.75;62.36;100846.06;5049965;28;20428;-62
2021/12/28 05:50:22;;;;;;;70.38;46.33;;;;;;;4.88;61.82;100838.34;5050211;28;20413;-63
2021/12/28 05:52:48;;;;;;;66.13;45.13;;;;;;;4.87;61.60;100844.53;5049752;28;20906;-63
2021/12/28 05:55:15;;;;;;;65.22;50.05;;;;;;;4.83;61.56;100835.16;5049740;28;20416;-63
2021/12/28 05:57:42;;;;;;;115.15;88.15;;;;;;;4.86;61.44;100842.84;5049718;28;20420;-63
2021/12/28 06:00:13;;;;;;;73.53;56.08;;;;;;;4.86;60.76;100847.25;5049994;28;20412;-64
2021/12/28 06:02:40;;;;;;;63.85;46.92;;;;;;;4.70;60.80;100853.34;5049916;28;20405;-63
2021/12/28 06:05:07;;;;;;;68.47;47.80;;;;;;;4.72;60.36;100858.50;5050152;28;20467;-63
2021/12/28 06:07:34;;;;;;;79.53;59.80;;;;;;;4.76;60.17;100860.03;5049569;28;20416;-63
2021/12/28 06:10:01;;;;;;;76.35;56.92;;;;;;;4.40;61.50;100858.53;5049294;28;20503;-63
2021/12/28 06:12:29;;;;;;;77.60;51.08;;;;;;;4.51;61.34;100855.31;5049673;28;20567;-63
2021/12/28 06:14:56;;;;;;;119.60;53.20;;;;;;;4.53;61.08;100862.16;5049382;28;20423;-63
2021/12/28 06:17:24;;;;;;;117.78;51.03;;;;;;;4.76;60.51;100868.75;5049761;28;20444;-63
2021/12/28 06:19:51;;;;;;;439.52;68.20;;;;;;;4.83;60.14;100858.78;5048844;28;20417;-63
2021/12/28 06:22:18;;;;;;;167.30;73.07;;;;;;;4.91;60.02;100853.09;5049260;28;20416;-63
2021/12/28 06:24:45;;;;;;;346.70;140.43;;;;;;;4.92;60.26;100857.41;5048830;28;20503;-63
2021/12/28 06:27:12;;;;;;;266.65;114.20;;;;;;;4.82;60.45;100857.94;5049386;28;20419;-63
2021/12/28 06:29:39;;;;;;;222.27;87.80;;;;;;;5.06;59.89;100859.25;5049486;28;20874;-63
2021/12/28 06:32:07;;;;;;;147.02;67.35;;;;;;;4.83;60.34;100858.78;5049091;28;20412;-63
2021/12/28 06:34:35;;;;;;;214.45;88.55;;;;;;;5.02;60.61;100869.06;5049382;28;20423;-63
2021/12/28 06:37:02;;;;;;;114.75;58.50;;;;;;;5.11;59.81;100870.31;5049578;28;20488;-63
2021/12/28 06:39:29;;;;;;;169.48;45.30;;;;;;;5.05;60.11;100878.53;5049080;28;20412;-63
2021/12/28 06:41:56;;;;;;;113.97;41.63;;;;;;;5.24;59.58;100883.59;5034630;28;20408;-63
2021/12/28 06:44:24;;;;;;;120.60;40.83;;;;;;;5.27;59.62;100883.41;5049193;28;21055;-63
2021/12/28 06:46:51;;;;;;;111.85;38.25;;;;;;;5.33;59.33;100883.03;5049110;28;20431;-62
2021/12/28 06:49:18;;;;;;;131.73;53.93;;;;;;;5.26;59.40;100886.97;5048849;28;20519;-63
2021/12/28 06:51:47;;;;;;;148.00;80.30;;;;;;;5.54;58.59;100886.22;5064275;28;20930;-62
2021/12/28 06:54:14;;;;;;;192.68;85.20;;;;;;;5.63;58.43;100889.13;5048860;28;20487;-63
2021/12/28 06:56:41;;;;;;;193.93;82.13;;;;;;;5.32;58.67;100887.47;5048935;28;20421;-62
2021/12/28 06:59:08;;;;;;;165.35;67.85;;;;;;;5.49;58.87;100888.25;5048330;28;20499;-63
2021/12/28 07:01:35;;;;;;;198.47;70.47;;;;;;;5.38;59.17;100897.63;5048177;28;20936;-63
2021/12/28 07:04:02;;;;;;;208.55;104.68;;;;;;;5.62;58.89;100905.84;5048986;28;20522;-63
2021/12/28 07:06:29;;;;;;;176.48;72.78;;;;;;;5.71;58.52;100896.56;5048753;28;20408;-62
2021/12/28 07:08:57;;;;;;;136.13;57.20;;;;;;;5.75;58.52;100903.31;5048629;28;20467;-65
2021/12/28 07:11:24;;;;;;;180.48;50.42;;;;;;;5.86;58.15;100910.59;5049067;28;20499;-63
2021/12/28 07:13:51;;;;;;;213.80;52.08;;;;;;;5.69;58.71;100908.94;5048713;28;20413;-64
2021/12/28 07:16:19;;;;;;;219.52;51.03;;;;;;;5.68;58.69;100901.16;5048901;28;20451;-62
2021/12/28 07:18:46;;;;;;;203.23;59.63;;;;;;;5.63;59.33;100906.69;5049161;28;20478;-64
2021/12/28 07:21:13;;;;;;;191.77;43.30;;;;;;;5.76;59.32;100914.72;5048928;28;20495;-62
2021/12/28 07:23:40;;;;;;;232.05;50.70;;;;;;;6.09;58.76;100908.38;5048660;28;20423;-63
2021/12/28 07:26:08;;;;;;;246.07;50.03;;;;;;;6.25;57.99;100914.41;5048826;28;20417;-63
2021/12/28 07:28:35;;;;;;;212.50;51.30;;;;;;;6.35;58.22;100910.25;5048482;28;20428;-63
2021/12/28 07:31:03;;;;;;;215.80;46.30;;;;;;;6.55;57.90;100905.50;5048761;28;20424;-63
2021/12/28 07:33:30;;;;;;;150.50;42.22;;;;;;;6.57;57.41;100901.88;5048752;28;20500;-63
2021/12/28 07:35:56;;;;;;;202.73;46.60;;;;;;;6.39;57.81;100910.91;5050400;28;20412;-64
2021/12/28 07:38:24;;;;;;;282.30;53.90;;;;;;;6.38;57.43;100904.78;5052912;28;20423;-64
2021/12/28 07:40:51;;;;;;;202.43;54.28;;;;;;;6.46;57.77;100909.56;5035910;28;20496;-73
2021/12/28 07:43:19;;;;;;;206.50;57.03;;;;;;;6.28;58.04;100919.44;5051539;28;20408;-64
2021/12/28 07:45:46;;;;;;;302.58;46.22;;;;;;;5.86;59.01;100915.84;5052149;28;20507;-64
2021/12/28 07:48:13;;;;;;;255.27;42.15;;;;;;;5.90;58.66;100920.00;5052276;28;20424;-63
2021/12/28 07:50:40;;;;;;;258.15;37.97;;;;;;;5.99;58.31;100921.25;5052292;28;20412;-64
2021/12/28 07:53:07;;;;;;;192.38;29.33;;;;;;;5.87;58.57;100914.06;5052186;28;20444;-64
2021/12/28 07:55:34;;;;;;;203.68;27.45;;;;;;;5.59;59.75;100916.53;5051970;28;20415;-65
2021/12/28 07:58:01;;;;;;;225.63;30.52;;;;;;;5.33;59.97;100914.56;5052200;28;20424;-64
2021/12/28 08:00:30;;;;;;;242.98;33.08;;;;;;;5.32;60.21;100919.00;5051799;28;20499;-64
2021/12/28 08:02:57;;;;;;;245.27;33.38;;;;;;;5.23;60.88;100914.25;5051948;28;20488;-63
2021/12/28 08:05:24;;;;;;;227.33;30.07;;;;;;;5.31;60.69;100925.19;5051518;28;20953;-66
2021/12/28 08:07:51;;;;;;;249.38;28.05;;;;;;;5.08;60.87;100923.84;5050985;28;20861;-68
2021/12/28 08:10:18;;;;;;;279.98;35.88;;;;;;;5.16;61.04;100924.28;5050907;28;20431;-64
2021/12/28 08:12:47;;;;;;;133.27;36.63;;;;;;;5.51;60.49;100923.19;5051192;28;20444;-64
2021/12/28 08:15:14;;;;;;;140.77;31.50;;;;;;;5.50;59.94;100929.38;5052555;28;20459;-64
2021/12/28 08:17:42;;;;;;;153.77;31.83;;;;;;;5.51;60.30;100934.53;5050851;28;20953;-65
2021/12/28 08:20:11;;;;;;;125.80;32.45;;;;;;;5.52;59.69;100936.22;5050637;28;20455;-64
2021/12/28 08:22:39;;;;;;;107.78;32.97;;;;;;;5.54;60.24;100933.53;5051044;28;20413;-65
2021/12/28 08:25:09;;;;;;;221.52;39.15;;;;;;;5.95;59.09;100944.25;5050317;28;20782;-64
2021/12/28 08:27:36;;;;;;;89.30;37.00;;;;;;;6.29;58.65;100947.47;5050032;28;20415;-66
2021/12/28 08:30:05;;;;;;;123.38;38.35;;;;;;;6.14;58.50;100948.38;5050059;28;20886;-65
2021/12/28 08:32:32;;;;;;;100.15;39.55;;;;;;;6.42;57.89;100947.56;5050279;28;20763;-64
2021/12/28 08:35:00;;;;;;;83.63;34.40;;;;;;;6.18;58.18;100955.16;5050705;28;20436;-65
2021/12/28 08:37:28;;;;;;;142.02;39.92;;;;;;;6.29;57.94;100959.78;5050434;28;20523;-64
2021/12/28 08:39:55;;;;;;;84.35;39.20;;;;;;;6.55;57.30;100956.41;5049721;28;20411;-65
2021/12/28 08:42:22;;;;;;;68.47;35.60;;;;;;;6.44;57.83;100952.72;5032950;28;20511;-65
2021/12/28 08:44:49;;;;;;;68.07;35.50;;;;;;;6.54;57.39;100959.94;5048511;28;20457;-70
2021/12/28 08:47:16;;;;;;;43.90;29.73;;;;;;;6.39;57.64;100951.22;5048279;28;20446;-65
2021/12/28 08:49:43;;;;;;;46.30;31.83;;;;;;;6.33;57.99;100946.34;5048521;28;20515;-66
2021/12/28 08:52:12;;;;;;;40.20;28.90;;;;;;;6.01;58.49;100950.94;5048760;28;20496;-65
2021/12/28 08:54:39;;;;;;;45.50;30.97;;;;;;;5.97;59.00;100941.53;5049470;28;20496;-66
2021/12/28 08:57:06;;;;;;;52.90;35.65;;;;;;;6.21;58.81;100941.84;5050251;28;20568;-68
2021/12/28 08:59:33;;;;;;;65.30;41.67;;;;;;;6.25;58.76;100948.59;5050177;28;20499;-64
2021/12/28 09:02:00;;;;;;;67.32;42.65;;;;;;;6.51;57.51;100939.09;5050045;28;20933;-66
2021/12/28 09:04:27;;;;;;;63.50;37.35;;;;;;;6.40;57.96;100939.75;5050337;28;20409;-65
2021/12/28 09:06:54;;;;;;;59.47;39.85;;;;;;;6.71;57.57;100944.88;5050225;28;20420;-64
2021/12/28 09:09:22;;;;;;;70.43;42.85;;;;;;;6.56;57.50;100937.00;5049800;28;20428;-64
2021/12/28 09:11:49;;;;;;;67.80;43.13;;;;;;;6.51;57.65;100927.69;5048460;28;20405;-65
2021/12/28 09:14:16;;;;;;;65.13;41.58;;;;;;;6.71;57.45;100922.06;5048455;28;20413;-64
2021/12/28 09:16:44;;;;;;;52.20;35.35;;;;;;;6.66;56.67;100929.38;5049426;28;20419;-65
2021/12/28 09:19:11;;;;;;;47.17;33.03;;;;;;;6.94;56.26;100923.22;5049759;28;20496;-64
2021/12/28 09:21:38;;;;;;;44.60;32.38;;;;;;;7.46;54.77;100913.69;5049662;28;20499;-67
2021/12/28 09:24:06;;;;;;;47.10;33.85;;;;;;;7.18;56.15;100919.94;5050120;28;20507;-65
2021/12/28 09:26:34;;;;;;;53.08;39.03;;;;;;;7.36;55.46;100923.13;5050075;28;20420;-64
2021/12/28 09:29:01;;;;;;;51.03;37.95;;;;;;;7.76;54.87;100915.22;5049679;28;20428;-65
2021/12/28 09:31:28;;;;;;;55.40;37.88;;;;;;;7.67;54.22;100929.88;5049487;28;20545;-64
2021/12/28 09:33:55;;;;;;;45.22;33.60;;;;;;;7.46;54.46;100926.88;5049179;28;20400;-65
2021/12/28 09:36:22;;;;;;;50.85;36.92;;;;;;;7.39;55.17;100926.41;5049509;28;20423;-65
2021/12/28 09:38:49;;;;;;;44.75;35.35;;;;;;;7.88;54.38;100927.56;5049431;28;20893;-65
2021/12/28 09:41:16;;;;;;;41.90;32.92;;;;;;;7.74;54.42;100928.50;5049502;28;20409;-65
2021/12/28 09:43:44;;;;;;;42.92;33.47;;;;;;;7.70;54.00;100921.72;5047623;28;20411;-66
2021/12/28 09:46:11;;;;;;;44.60;33.33;;;;;;;7.62;54.28;100914.38;5049041;28;20914;-64
2021/12/28 09:48:39;;;;;;;41.20;32.33;;;;;;;7.79;54.40;100922.94;5049703;28;20504;-66
2021/12/28 09:51:07;;;;;;;37.33;29.90;;;;;;;7.95;54.50;100925.38;5049391;28;20511;-64
2021/12/28 09:53:35;;;;;;;33.67;26.90;;;;;;;7.51;54.69;100932.69;5031708;28;20412;-64
2021/12/28 09:56:02;;;;;;;31.48;24.80;;;;;;;6.88;55.80;100928.88;5049139;28;20420;-64
2021/12/28 09:58:29;;;;;;;27.85;23.55;;;;;;;6.72;56.11;100933.44;5063894;28;20416;-65
2021/12/28 10:00:58;;;;;;;28.23;24.00;;;;;;;7.46;54.25;100936.56;5049237;28;20499;-64
2021/12/28 10:03:25;;;;;;;30.70;25.83;;;;;;;8.08;52.61;100926.19;5049036;28;20492;-65
2021/12/28 10:05:52;;;;;;;28.42;23.58;;;;;;;7.77;52.41;100925.66;5049312;28;20487;-65
2021/12/28 10:08:24;;;;;;;27.85;22.95;;;;;;;7.49;53.46;100920.56;5049289;28;20524;-65
2021/12/28 10:10:56;;;;;;;27.40;22.17;;;;;;;7.23;54.17;100916.03;5049331;28;20542;-65
2021/12/28 10:13:26;;;;;;;26.60;22.17;;;;;;;6.93;55.17;100913.59;5048965;28;20478;-64
2021/12/28 10:15:54;;;;;;;27.25;22.70;;;;;;;6.91;55.35;100918.13;5048776;28;20420;-64
2021/12/28 10:18:22;;;;;;;32.30;26.93;;;;;;;6.95;54.86;100919.63;5048810;28;20809;-66
2021/12/28 10:20:52;;;;;;;67.93;57.10;;;;;;;7.00;55.01;100919.34;5048717;28;20503;-64
2021/12/28 10:23:23;;;;;;;32.17;26.33;;;;;;;6.86;55.73;100911.50;5048470;28;20791;-66
2021/12/28 10:25:53;;;;;;;24.75;20.10;;;;;;;6.60;56.57;100922.72;5048741;28;20910;-65
2021/12/28 10:28:22;;;;;;;26.27;21.30;;;;;;;6.37;57.22;100912.81;5037820;28;20416;-64
2021/12/28 10:30:52;;;;;;;23.60;20.07;;;;;;;6.35;56.91;100919.94;5048045;28;20525;-65
2021/12/28 10:33:24;;;;;;;30.88;27.38;;;;;;;6.74;56.17;100916.59;5048364;28;20423;-65
2021/12/28 10:35:52;;;;;;;27.60;23.42;;;;;;;6.61;56.44;100921.78;5048436;28;20495;-65
2021/12/28 10:38:21;;;;;;;23.52;19.95;;;;;;;6.28;57.24;100923.88;5048663;28;20445;-65
2021/12/28 10:40:52;;;;;;;24.77;20.55;;;;;;;6.38;57.01;100917.94;5048567;28;20409;-69
2021/12/28 10:43:20;;;;;;;24.40;20.33;;;;;;;6.56;56.62;100910.69;5048164;28;20869;-65
2021/12/28 10:45:51;;;;;;;26.60;21.07;;;;;;;6.52;56.67;100908.34;5048355;28;20508;-65
2021/12/28 10:48:21;;;;;;;23.40;19.67;;;;;;;6.37;57.52;100912.81;5048728;28;20430;-65
2021/12/28 10:50:54;;;;;;;28.10;23.50;;;;;;;6.71;57.01;100921.19;5048351;28;21006;-65
2021/12/28 10:53:24;;;;;;;28.55;23.60;;;;;;;6.92;56.35;100911.94;5048619;28;20498;-68
2021/12/28 10:55:54;;;;;;;23.58;21.02;;;;;;;7.05;55.74;100925.16;5048306;28;20444;-65
2021/12/28 10:58:25;;;;;;;33.55;30.13;;;;;;;6.92;56.36;100922.47;5048575;28;20905;-65
2021/12/28 11:00:53;;;;;;;22.80;20.40;;;;;;;7.11;55.44;100916.00;5048334;28;20500;-65
2021/12/28 11:03:30;;;;;;;38.70;28.77;;;;;;;7.01;56.43;100916.63;5048100;28;20866;-65
2021/12/28 11:06:00;;;;;;;50.90;31.73;;;;;;;6.87;56.42;100914.00;5048789;28;20431;-65
2021/12/28 11:08:29;;;;;;;64.32;39.03;;;;;;;7.33;55.06;100915.44;5048161;28;20435;-64
2021/12/28 11:10:59;;;;;;;30.88;25.25;;;;;;;6.87;55.96;100910.53;5050621;28;20515;-65
2021/12/28 11:13:29;;;;;;;20.27;17.45;;;;;;;6.14;57.46;100906.31;5052273;28;20910;-66
2021/12/28 11:15:58;;;;;;;19.65;17.20;;;;;;;6.35;57.35;100901.53;5052597;28;20448;-65
2021/12/28 11:18:31;;;;;;;18.70;16.58;;;;;;;6.97;55.63;100901.94;5052088;28;20408;-64